Time;durP1;ratioP1;P1;durP2;ratioP2;P2;SDS_P1;SDS_P2;PMS_P1;PMS_P2;Temp;Humidity;BMP_temperature;BMP_pressure;BME280_temperature;BME280_humidity;BME280_pressure;Samples;Min_cycle;Max_cycle;Signal;HPM_P1;HPM_P2
2023/01/24 00:00:25;;;;;;;42.50;17.05;;;;;;;;;;4987640;28;20034;-60
2023/01/24 00:02:50;;;;;;;37.35;14.55;;;;;;;;;;4990457;28;20018;-60
2023/01/24 00:05:15;;;;;;;38.15;16.02;;;;;;;;;;4986500;28;20046;-60
2023/01/24 00:07:41;;;;;;;42.83;16.77;;;;;;;;;;4989225;28;20038;-60
2023/01/24 00:10:07;;;;;;;41.25;16.70;;;;;;;;;;4989409;28;20038;-60
2023/01/24 00:12:32;;;;;;;36.17;15.75;;;;;;;;;;4988815;28;20034;-60
2023/01/24 00:14:58;;;;;;;34.38;14.65;;;;;;;;;;4988675;28;20492;-60
2023/01/24 00:17:24;;;;;;;38.08;16.60;;;;;;;;;;4988089;28;20053;-60
2023/01/24 00:19:49;;;;;;;35.15;15.23;;;;;;;;;;4989705;28;20045;-60
2023/01/24 00:22:15;;;;;;;37.28;14.85;;;;;;;;;;4984700;28;20031;-60
2023/01/24 00:24:40;;;;;;;43.15;16.17;;;;;;;;;;4983371;28;20030;-60
2023/01/24 00:27:05;;;;;;;30.55;14.68;;;;;;;;;;4987695;28;20022;-60
2023/01/24 00:29:31;;;;;;;36.88;15.40;;;;;;;;;;4985750;28;20447;-60
2023/01/24 00:31:56;;;;;;;36.80;16.08;;;;;;;;;;4981534;28;20077;-60
2023/01/24 00:34:22;;;;;;;39.08;16.77;;;;;;;;;;4988658;28;20034;-60
2023/01/24 00:36:47;;;;;;;36.47;15.30;;;;;;;;;;4987921;28;20102;-60
2023/01/24 00:39:13;;;;;;;34.38;14.00;;;;;;;;;;4989510;28;20026;-60
2023/01/24 00:41:38;;;;;;;36.97;15.48;;;;;;;;;;4988979;28;20030;-60
2023/01/24 00:44:04;;;;;;;36.92;15.70;;;;;;;;;;4988652;28;20044;-60
2023/01/24 00:46:29;;;;;;;38.05;15.00;;;;;;;;;;4987242;28;20488;-60
2023/01/24 00:48:55;;;;;;;35.20;14.50;;;;;;;;;;4987215;28;20038;-60
2023/01/24 00:51:20;;;;;;;35.30;15.98;;;;;;;;;;4986442;28;20045;-60
2023/01/24 00:53:45;;;;;;;35.20;15.13;;;;;;;;;;4986387;28;20026;-60
2023/01/24 00:56:11;;;;;;;34.83;14.65;;;;;;;;;;4985676;28;20069;-60
2023/01/24 00:58:36;;;;;;;41.47;16.23;;;;;;;;;;4987628;28;20484;-60
2023/01/24 01:01:02;;;;;;;35.95;15.52;;;;;;;;;;4989098;28;20037;-60
2023/01/24 01:03:27;;;;;;;33.80;15.25;;;;;;;;;;4988133;28;20492;-60
2023/01/24 01:06:06;;;;;;;33.80;13.90;;;;;;;;;;4985677;28;20641;-60
2023/01/24 01:08:32;;;;;;;34.00;15.00;;;;;;;;;;4984761;28;20077;-60
2023/01/24 01:10:57;;;;;;;33.95;14.25;;;;;;;;;;4988989;28;20038;-60
2023/01/24 01:13:23;;;;;;;36.53;14.10;;;;;;;;;;4989748;28;20121;-60
2023/01/24 01:15:49;;;;;;;31.42;14.65;;;;;;;;;;4987067;28;20022;-60
2023/01/24 01:18:14;;;;;;;35.50;14.30;;;;;;;;;;4989499;28;20034;-60
2023/01/24 01:20:40;;;;;;;35.70;14.77;;;;;;;;;;4989679;28;20408;-60
2023/01/24 01:23:05;;;;;;;33.75;14.52;;;;;;;;;;4986345;28;20029;-60
2023/01/24 01:25:31;;;;;;;33.78;14.88;;;;;;;;;;4986659;28;20041;-60
2023/01/24 01:27:56;;;;;;;32.58;14.48;;;;;;;;;;5005573;28;20041;-60
2023/01/24 01:30:21;;;;;;;32.35;14.52;;;;;;;;;;4991563;28;20029;-60
2023/01/24 01:32:47;;;;;;;33.17;14.02;;;;;;;;;;4992183;28;20476;-60
2023/01/24 01:35:12;;;;;;;38.35;14.18;;;;;;;;;;4991905;28;20105;-60
2023/01/24 01:37:38;;;;;;;36.05;14.93;;;;;;;;;;4990237;28;20033;-60
2023/01/24 01:40:04;;;;;;;35.65;15.15;;;;;;;;;;4992271;28;20033;-60
2023/01/24 01:42:53;;;;;;;37.38;16.48;;;;;;;;;;4993005;28;20031;-60
2023/01/24 01:45:33;;;;;;;34.47;14.07;;;;;;;;;;4992054;28;20448;-60
2023/01/24 01:48:01;;;;;;;39.38;15.32;;;;;;;;;;4991314;28;20030;-59
2023/01/24 01:50:35;;;;;;;34.10;14.95;;;;;;;;;;4989979;28;20121;-59
2023/01/24 01:53:00;;;;;;;31.20;13.60;;;;;;;;;;5007922;28;20022;-59
2023/01/24 01:55:32;;;;;;;31.67;13.52;;;;;;;;;;4990838;28;20038;-59
2023/01/24 01:58:00;;;;;;;33.53;14.75;;;;;;;;;;4991532;28;20030;-59
2023/01/24 02:00:27;;;;;;;34.85;15.80;;;;;;;;;;4990262;28;20030;-59
2023/01/24 02:03:37;;;;;;;31.77;13.43;;;;;;;;;;4992340;28;20439;-59
2023/01/24 02:05:42;;;;;;;35.00;14.40;;;;;;;;;;4988633;28;20089;-59
2023/01/24 02:08:12;;;;;;;42.08;15.70;;;;;;;;;;4990346;28;20617;-59
2023/01/24 02:13:21;;;;;;;33.53;15.23;;;;;;;;;;4987828;28;20068;-59
2023/01/24 02:16:03;;;;;;;34.50;14.25;;;;;;;;;;4986807;28;20030;-59
2023/01/24 02:18:34;;;;;;;30.45;14.05;;;;;;;;;;4988231;28;20392;-59
2023/01/24 02:20:59;;;;;;;30.45;13.63;;;;;;;;;;4984635;28;20035;-59
2023/01/24 02:23:33;;;;;;;35.05;15.10;;;;;;;;;;4991221;28;20028;-59
2023/01/24 02:26:16;;;;;;;39.15;15.98;;;;;;;;;;4989757;28;20106;-59
2023/01/24 02:29:13;;;;;;;34.78;13.88;;;;;;;;;;4991012;28;20500;-59
2023/01/24 02:31:55;;;;;;;36.45;14.07;;;;;;;;;;4986316;28;20119;-59
2023/01/24 02:34:21;;;;;;;32.80;13.57;;;;;;;;;;4989860;28;20095;-59
2023/01/24 02:36:53;;;;;;;36.63;14.90;;;;;;;;;;4990068;28;20053;-59
2023/01/24 02:39:28;;;;;;;33.63;14.25;;;;;;;;;;4988006;28;20038;-59
2023/01/24 02:42:07;;;;;;;34.35;14.45;;;;;;;;;;4984219;28;20026;-59
2023/01/24 02:44:48;;;;;;;31.48;14.15;;;;;;;;;;4990141;28;20648;-59
2023/01/24 02:47:13;;;;;;;32.03;13.75;;;;;;;;;;4989727;28;20034;-59
2023/01/24 02:49:38;;;;;;;34.67;14.90;;;;;;;;;;4998382;28;20026;-59
2023/01/24 02:54:47;;;;;;;35.58;14.32;;;;;;;;;;4989316;28;20053;-59
2023/01/24 02:59:57;;;;;;;37.78;14.02;;;;;;;;;;4988714;28;20077;-59
2023/01/24 03:02:22;;;;;;;36.88;15.75;;;;;;;;;;4986540;28;20046;-59
2023/01/24 03:04:48;;;;;;;37.20;16.15;;;;;;;;;;4987398;28;20033;-59
2023/01/24 03:07:13;;;;;;;37.05;15.50;;;;;;;;;;4983766;28;20451;-59
2023/01/24 03:09:45;;;;;;;35.65;14.30;;;;;;;;;;4989077;28;20030;-59
2023/01/24 03:36:53;;;;;;;35.50;14.52;;;;;;;;;;4984864;28;20064;-59
2023/01/24 03:42:03;;;;;;;35.53;14.27;;;;;;;;;;4986729;28;20049;-59
2023/01/24 03:44:28;;;;;;;34.35;13.70;;;;;;;;;;4989577;28;20029;-59
2023/01/24 03:46:54;;;;;;;36.15;15.00;;;;;;;;;;4989813;28;20032;-59
2023/01/24 03:49:19;;;;;;;39.20;15.63;;;;;;;;;;4989914;28;20022;-61
2023/01/24 03:54:29;;;;;;;35.67;14.65;;;;;;;;;;4990307;28;20052;-59
2023/01/24 03:56:54;;;;;;;34.65;14.05;;;;;;;;;;4989724;28;20030;-59
2023/01/24 03:59:19;;;;;;;33.25;14.68;;;;;;;;;;4990042;28;20570;-61
2023/01/24 04:01:45;;;;;;;35.90;14.65;;;;;;;;;;4990553;28;20401;-60
2023/01/24 04:04:11;;;;;;;37.53;14.90;;;;;;;;;;4988016;28;20026;-60
2023/01/24 04:06:37;;;;;;;35.28;14.70;;;;;;;;;;4987994;28;20030;-60
2023/01/24 04:09:02;;;;;;;35.63;13.88;;;;;;;;;;4989374;28;20034;-61
2023/01/24 04:11:27;;;;;;;36.05;14.50;;;;;;;;;;4986777;28;20031;-60
2023/01/24 04:13:53;;;;;;;33.67;13.90;;;;;;;;;;4989454;28;20022;-60
2023/01/24 04:16:18;;;;;;;39.20;14.80;;;;;;;;;;4987364;28;20035;-60
2023/01/24 04:18:44;;;;;;;37.83;15.00;;;;;;;;;;4988586;28;20057;-61
2023/01/24 04:21:09;;;;;;;35.00;14.77;;;;;;;;;;4986289;28;20053;-61
2023/01/24 04:23:37;;;;;;;36.45;14.73;;;;;;;;;;4989320;28;20097;-60
2023/01/24 04:26:03;;;;;;;34.03;14.40;;;;;;;;;;4984946;28;20022;-60
2023/01/24 04:28:30;;;;;;;41.33;15.45;;;;;;;;;;4987809;28;20161;-60
2023/01/24 04:31:00;;;;;;;40.63;15.73;;;;;;;;;;4988117;28;20030;-60
2023/01/24 04:33:26;;;;;;;31.60;14.25;;;;;;;;;;4988950;28;20026;-60
2023/01/24 04:35:51;;;;;;;41.10;16.50;;;;;;;;;;4989039;28;20038;-61
2023/01/24 04:38:17;;;;;;;36.50;14.90;;;;;;;;;;4988321;28;20114;-60
2023/01/24 04:40:42;;;;;;;39.60;16.20;;;;;;;;;;4987560;28;20042;-60
2023/01/24 04:43:07;;;;;;;42.05;16.02;;;;;;;;;;4989392;28;20041;-60
2023/01/24 04:45:33;;;;;;;42.00;15.85;;;;;;;;;;4987647;28;20032;-60
2023/01/24 04:47:58;;;;;;;43.30;16.00;;;;;;;;;;4989142;28;20523;-60
2023/01/24 04:50:24;;;;;;;42.30;16.90;;;;;;;;;;4988858;28;20186;-61
2023/01/24 04:52:49;;;;;;;41.60;16.00;;;;;;;;;;4990995;28;20451;-60
2023/01/24 04:55:15;;;;;;;45.25;17.48;;;;;;;;;;4989287;28;20137;-60
2023/01/24 04:57:40;;;;;;;47.03;17.48;;;;;;;;;;4990961;28;20183;-60
2023/01/24 05:00:09;;;;;;;48.30;19.08;;;;;;;;;;4988902;28;20058;-60
2023/01/24 05:02:37;;;;;;;56.22;20.98;;;;;;;;;;5004886;28;20022;-60
2023/01/24 05:05:03;;;;;;;53.88;18.85;;;;;;;;;;4989555;28;20034;-60
2023/01/24 05:07:28;;;;;;;45.33;17.48;;;;;;;;;;4990884;28;20018;-60
2023/01/24 05:09:53;;;;;;;46.17;18.10;;;;;;;;;;4990147;28;20553;-61
2023/01/24 05:12:19;;;;;;;46.65;16.95;;;;;;;;;;4991723;28;20464;-60
2023/01/24 05:14:44;;;;;;;42.38;16.75;;;;;;;;;;4990207;28;20033;-60
2023/01/24 05:17:09;;;;;;;57.28;19.98;;;;;;;;;;4988430;28;20505;-60
2023/01/24 05:19:35;;;;;;;74.20;24.58;;;;;;;;;;4992803;28;20037;-60
2023/01/24 05:22:00;;;;;;;50.10;19.48;;;;;;;;;;4988492;28;20030;-60
2023/01/24 05:24:26;;;;;;;51.17;19.38;;;;;;;;;;4990924;28;20114;-60
2023/01/24 05:26:51;;;;;;;86.22;31.92;;;;;;;;;;4986384;28;20511;-61
2023/01/24 05:29:16;;;;;;;72.68;24.98;;;;;;;;;;5000644;28;20030;-59
2023/01/24 05:31:42;;;;;;;137.18;37.95;;;;;;;;;;4992054;28;20532;-60
2023/01/24 05:34:07;;;;;;;127.90;35.92;;;;;;;;;;4991914;28;20507;-60
2023/01/24 05:36:33;;;;;;;110.05;33.42;;;;;;;;;;4991569;28;20022;-60
2023/01/24 05:38:58;;;;;;;165.77;43.83;;;;;;;;;;4992546;28;20085;-60
2023/01/24 05:41:23;;;;;;;141.50;37.42;;;;;;;;;;4991818;28;20431;-61
2023/01/24 05:43:49;;;;;;;147.23;37.58;;;;;;;;;;4992837;28;20022;-61
2023/01/24 05:46:17;;;;;;;221.48;51.42;;;;;;;;;;4992307;28;20397;-60
2023/01/24 05:48:45;;;;;;;270.58;64.43;;;;;;;;;;4992704;28;20026;-61
2023/01/24 05:51:13;;;;;;;262.63;61.15;;;;;;;;;;4992638;28;20031;-60
2023/01/24 05:53:40;;;;;;;136.55;37.42;;;;;;;;;;4992978;28;20037;-60
2023/01/24 05:56:31;;;;;;;118.63;37.40;;;;;;;;;;4992210;28;20086;-60
2023/01/24 05:58:57;;;;;;;116.03;37.63;;;;;;;;;;4986363;28;20049;-60
2023/01/24 06:01:23;;;;;;;159.13;52.20;;;;;;;;;;4992557;28;20031;-60
2023/01/24 06:03:51;;;;;;;109.55;40.13;;;;;;;;;;4992486;28;20025;-60
2023/01/24 06:06:19;;;;;;;78.43;30.48;;;;;;;;;;4991595;28;20022;-60
2023/01/24 06:08:44;;;;;;;71.15;28.33;;;;;;;;;;4991521;28;20341;-60
2023/01/24 06:11:15;;;;;;;68.85;27.83;;;;;;;;;;4992171;28;20026;-60
2023/01/24 06:13:41;;;;;;;47.13;19.48;;;;;;;;;;4992254;28;20057;-60
2023/01/24 06:16:14;;;;;;;49.63;20.23;;;;;;;;;;4991314;28;20042;-60
2023/01/24 06:18:40;;;;;;;46.35;19.20;;;;;;;;;;4991593;28;20034;-60
2023/01/24 06:21:23;;;;;;;52.67;19.38;;;;;;;;;;4992409;28;20503;-60
2023/01/24 06:23:49;;;;;;;47.88;19.30;;;;;;;;;;4992022;28;20026;-60
2023/01/24 06:26:15;;;;;;;47.85;18.58;;;;;;;;;;4991577;28;20019;-60
2023/01/24 06:28:40;;;;;;;46.47;18.67;;;;;;;;;;4991588;28;20030;-60
2023/01/24 06:31:33;;;;;;;50.17;19.33;;;;;;;;;;4992306;28;20022;-60
2023/01/24 06:34:23;;;;;;;46.92;17.35;;;;;;;;;;4986055;28;20113;-60
2023/01/24 06:37:03;;;;;;;55.70;20.60;;;;;;;;;;4983541;28;20068;-60
2023/01/24 06:39:29;;;;;;;;;;;;;;;;;;4992368;28;20026;-60
2023/01/24 06:41:54;;;;;;;44.53;17.88;;;;;;;;;;4986726;28;20415;-59
2023/01/24 06:44:20;;;;;;;47.20;17.50;;;;;;;;;;4991078;28;20022;-60
2023/01/24 06:46:45;;;;;;;48.60;18.35;;;;;;;;;;4989982;28;20515;-60
2023/01/24 06:49:11;;;;;;;45.67;17.40;;;;;;;;;;4991738;28;20027;-59
2023/01/24 06:51:36;;;;;;;49.80;18.95;;;;;;;;;;4991660;28;20076;-59
2023/01/24 06:54:05;;;;;;;52.88;19.30;;;;;;;;;;4991363;28;20062;-59
2023/01/24 06:56:31;;;;;;;59.08;21.42;;;;;;;;;;4990750;28;20034;-59
2023/01/24 06:58:56;;;;;;;58.05;22.25;;;;;;;;;;4991026;28;20038;-58
2023/01/24 07:01:21;;;;;;;67.63;27.33;;;;;;;;;;4991427;28;20026;-60
2023/01/24 07:03:47;;;;;;;62.15;23.40;;;;;;;;;;4991159;28;20106;-58
2023/01/24 07:06:13;;;;;;;53.92;21.65;;;;;;;;;;4990399;28;20450;-60
2023/01/24 07:08:38;;;;;;;50.75;18.95;;;;;;;;;;4991137;28;20026;-60
2023/01/24 07:11:03;;;;;;;48.60;17.92;;;;;;;;;;4990532;28;20157;-60
2023/01/24 07:13:29;;;;;;;51.97;20.50;;;;;;;;;;4991168;28;20030;-60
2023/01/24 07:15:54;;;;;;;57.38;20.42;;;;;;;;;;4990363;28;20169;-60
2023/01/24 07:18:20;;;;;;;53.63;19.90;;;;;;;;;;4990381;28;20022;-60
2023/01/24 07:20:45;;;;;;;62.58;21.40;;;;;;;;;;4991323;28;20030;-60
2023/01/24 07:23:27;;;;;;;56.60;20.60;;;;;;;;;;4985564;28;20403;-60
2023/01/24 07:25:53;;;;;;;59.13;21.67;;;;;;;;;;4990624;28;20480;-60
2023/01/24 07:28:19;;;;;;;56.50;20.27;;;;;;;;;;4997035;28;20041;-60
2023/01/24 07:30:45;;;;;;;55.70;20.33;;;;;;;;;;4983536;28;20472;-60
2023/01/24 07:33:17;;;;;;;64.28;21.98;;;;;;;;;;5087299;28;20805;-60
2023/01/24 07:35:43;;;;;;;54.80;22.45;;;;;;;;;;5081816;28;20028;-59
2023/01/24 07:38:09;;;;;;;58.78;20.67;;;;;;;;;;5065625;28;20028;-60
2023/01/24 07:40:35;;;;;;;54.92;21.05;;;;;;;;;;5066890;28;20452;-60
2023/01/24 07:43:02;;;;;;;58.50;20.92;;;;;;;;;;5067584;28;20021;-59
2023/01/24 07:45:28;;;;;;;51.22;20.35;;;;;;;;;;5066764;28;20045;-60
2023/01/24 07:47:58;;;;;;;49.88;19.10;;;;;;;;;;5071478;28;20012;-60
2023/01/24 07:50:24;;;;;;;59.15;21.70;;;;;;;;;;5071549;28;20028;-60
2023/01/24 07:52:54;;;;;;;53.25;19.77;;;;;;;;;;5072963;28;20024;-60
2023/01/24 07:55:20;;;;;;;49.95;19.05;;;;;;;;;;5066232;28;20452;-60
2023/01/24 07:57:46;;;;;;;58.40;20.50;;;;;;;;;;5064637;28;20470;-60
2023/01/24 08:00:13;;;;;;;100.53;29.55;;;;;;;;;;5069087;28;20115;-60
2023/01/24 08:02:39;;;;;;;82.80;26.58;;;;;;;;;;5065663;28;20100;-60
2023/01/24 08:05:05;;;;;;;73.60;24.48;;;;;;;;;;5065738;28;20499;-60
2023/01/24 08:07:30;;;;;;;69.03;23.33;;;;;;;;;;5073873;28;20033;-60
2023/01/24 08:09:55;;;;;;;67.85;24.60;;;;;;;;;;5070815;28;20381;-60
2023/01/24 08:12:21;;;;;;;55.78;22.23;;;;;;;;;;5075510;28;20569;-60
2023/01/24 08:14:46;;;;;;;48.25;19.30;;;;;;;;;;5065499;28;20085;-60
2023/01/24 08:17:12;;;;;;;47.35;19.60;;;;;;;;;;5067511;28;20027;-60
2023/01/24 08:19:39;;;;;;;45.47;18.90;;;;;;;;;;5066014;28;20040;-60
2023/01/24 08:22:05;;;;;;;50.42;20.70;;;;;;;;;;5076009;28;20021;-60
2023/01/24 08:24:30;;;;;;;45.65;19.15;;;;;;;;;;5067205;28;20029;-60
2023/01/24 08:26:55;;;;;;;44.85;18.45;;;;;;;;;;5067676;28;20021;-59
2023/01/24 08:29:21;;;;;;;54.15;20.27;;;;;;;;;;5072789;28;20116;-60
2023/01/24 08:31:48;;;;;;;44.47;18.75;;;;;;;;;;5075783;28;20081;-60
2023/01/24 08:34:13;;;;;;;42.30;18.10;;;;;;;;;;5075947;28;20029;-60
2023/01/24 08:36:39;;;;;;;46.65;18.88;;;;;;;;;;5063668;28;20039;-60
2023/01/24 08:39:04;;;;;;;42.53;16.75;;;;;;;;;;5060685;28;20037;-60
2023/01/24 08:41:30;;;;;;;41.53;18.40;;;;;;;;;;5066783;28;20701;-60
2023/01/24 08:43:55;;;;;;;47.65;19.38;;;;;;;;;;5056520;28;20028;-60
2023/01/24 08:46:21;;;;;;;50.75;20.83;;;;;;;;;;5057076;28;20487;-60
2023/01/24 08:48:46;;;;;;;42.25;18.45;;;;;;;;;;5051864;28;20021;-60
2023/01/24 08:51:12;;;;;;;44.25;18.35;;;;;;;;;;5053727;28;20180;-60
2023/01/24 08:53:37;;;;;;;49.08;20.67;;;;;;;;;;5056022;28;20029;-60
2023/01/24 08:56:03;;;;;;;47.92;20.67;;;;;;;;;;5053915;28;20468;-60
2023/01/24 08:58:29;;;;;;;45.72;21.52;;;;;;;;;;5054320;28;20043;-60
2023/01/24 09:00:54;;;;;;;46.13;20.50;;;;;;;;;;5059683;28;20025;-60
2023/01/24 09:03:19;;;;;;;41.80;19.83;;;;;;;;;;5063264;28;20107;-60
2023/01/24 09:05:45;;;;;;;41.22;18.60;;;;;;;;;;5051208;28;20129;-60
2023/01/24 09:08:11;;;;;;;42.58;19.35;;;;;;;;;;5056830;28;20486;-60
2023/01/24 09:10:37;;;;;;;43.13;19.35;;;;;;;;;;5060890;28;20552;-60
2023/01/24 09:13:03;;;;;;;53.72;24.00;;;;;;;;;;5058332;28;20115;-60
2023/01/24 09:15:28;;;;;;;47.47;20.85;;;;;;;;;;5055909;28;20490;-60
2023/01/24 09:17:55;;;;;;;46.15;19.92;;;;;;;;;;5051137;28;20025;-60
2023/01/24 09:20:20;;;;;;;47.45;21.25;;;;;;;;;;5059386;28;20033;-60
2023/01/24 09:22:46;;;;;;;60.33;26.08;;;;;;;;;;5056597;28;20067;-60
2023/01/24 09:25:11;;;;;;;50.38;22.27;;;;;;;;;;5059185;28;20622;-59
2023/01/24 09:27:37;;;;;;;39.70;19.50;;;;;;;;;;5054542;28;20036;-59
2023/01/24 09:30:07;;;;;;;43.70;18.60;;;;;;;;;;5058683;28;20013;-59
2023/01/24 09:32:32;;;;;;;39.63;16.90;;;;;;;;;;5060988;28;20091;-59
2023/01/24 09:34:57;;;;;;;39.35;17.30;;;;;;;;;;5056918;28;20029;-59
2023/01/24 09:37:23;;;;;;;37.38;16.05;;;;;;;;;;5049877;28;20032;-59
2023/01/24 09:39:48;;;;;;;32.45;14.00;;;;;;;;;;5051892;28;20027;-60
2023/01/24 09:42:26;;;;;;;49.00;20.90;;;;;;;;;;5052284;28;20155;-60
2023/01/24 09:45:06;;;;;;;40.10;17.13;;;;;;;;;;5051397;28;20040;-60
2023/01/24 09:48:01;;;;;;;39.33;16.20;;;;;;;;;;5050177;28;20490;-60
2023/01/24 09:50:40;;;;;;;43.38;16.70;;;;;;;;;;5041353;28;20037;-60
2023/01/24 09:53:17;;;;;;;36.13;16.67;;;;;;;;;;5047381;28;20016;-60
2023/01/24 09:55:43;;;;;;;39.65;16.45;;;;;;;;;;5049383;28;20028;-60
2023/01/24 09:58:31;;;;;;;43.83;17.63;;;;;;;;;;5052957;28;20071;-60
2023/01/24 10:01:00;;;;;;;37.50;16.48;;;;;;;;;;5053901;28;20070;-60
2023/01/24 10:03:26;;;;;;;34.83;15.73;;;;;;;;;;5059019;28;20077;-60
2023/01/24 10:05:54;;;;;;;38.13;16.50;;;;;;;;;;5050536;28;20486;-60
2023/01/24 10:08:27;;;;;;;41.50;15.27;;;;;;;;;;5053872;28;20537;-60
2023/01/24 10:11:14;;;;;;;37.22;16.42;;;;;;;;;;5055006;28;20082;-60
2023/01/24 10:13:51;;;;;;;58.25;21.70;;;;;;;;;;5050392;28;20059;-60
2023/01/24 10:16:34;;;;;;;64.75;21.88;;;;;;;;;;5045480;28;20108;-60
2023/01/24 10:19:21;;;;;;;88.53;29.80;;;;;;;;;;5056288;28;20029;-60
2023/01/24 10:22:05;;;;;;;73.22;26.95;;;;;;;;;;5056167;28;20438;-60
2023/01/24 10:24:34;;;;;;;48.22;19.77;;;;;;;;;;5059824;28;20032;-60
2023/01/24 10:27:01;;;;;;;48.83;21.33;;;;;;;;;;5042395;28;20021;-60
2023/01/24 10:29:30;;;;;;;46.70;19.40;;;;;;;;;;5058085;28;20394;-60
2023/01/24 10:32:03;;;;;;;47.17;20.75;;;;;;;;;;5067137;28;20108;-60
2023/01/24 10:34:39;;;;;;;54.42;25.65;;;;;;;;;;5052315;28;20033;-60
2023/01/24 10:37:28;;;;;;;41.13;18.52;;;;;;;;;;5049322;28;20422;-60
2023/01/24 10:39:54;;;;;;;49.75;22.83;;;;;;;;;;5046705;28;20025;-60
2023/01/24 10:42:31;;;;;;;50.28;23.60;;;;;;;;;;5049469;28;20517;-60
2023/01/24 10:45:00;;;;;;;76.28;32.17;;;;;;;;;;5051094;28;20116;-60
2023/01/24 10:47:40;;;;;;;97.35;34.63;;;;;;;;;;5052718;28;20060;-60
2023/01/24 10:50:15;;;;;;;85.82;32.70;;;;;;;;;;5049125;28;20056;-59
2023/01/24 10:52:41;;;;;;;103.60;34.72;;;;;;;;;;5048307;28;20036;-59
2023/01/24 10:55:36;;;;;;;88.95;29.60;;;;;;;;;;5053163;28;20652;-59
2023/01/24 10:58:14;;;;;;;77.38;26.92;;;;;;;;;;5051536;28;20036;-59
2023/01/24 11:00:41;;;;;;;76.03;26.55;;;;;;;;;;5052055;28;20525;-59
2023/01/24 11:03:34;;;;;;;93.30;31.73;;;;;;;;;;5054816;28;20021;-59
2023/01/24 11:06:00;;;;;;;66.10;27.23;;;;;;;;;;5043424;28;20364;-59
2023/01/24 11:08:31;;;;;;;69.78;26.25;;;;;;;;;;5052658;28;20025;-59
2023/01/24 11:11:00;;;;;;;77.18;29.77;;;;;;;;;;5053870;28;20025;-59
2023/01/24 11:13:32;;;;;;;68.43;26.85;;;;;;;;;;5049699;28;20040;-59
2023/01/24 11:16:02;;;;;;;62.15;24.42;;;;;;;;;;5054382;28;20545;-59
2023/01/24 11:18:29;;;;;;;81.55;30.17;;;;;;;;;;5048674;28;20040;-59
2023/01/24 11:21:15;;;;;;;68.07;28.58;;;;;;;;;;5055538;28;20024;-60
2023/01/24 11:23:42;;;;;;;37.67;16.85;;;;;;;;;;5054698;28;20078;-60
2023/01/24 11:26:23;;;;;;;78.97;32.17;;;;;;;;;;5055660;28;20040;-59
2023/01/24 11:28:57;;;;;;;49.92;19.88;;;;;;;;;;5053196;28;20020;-59
2023/01/24 11:31:27;;;;;;;47.85;19.92;;;;;;;;;;5049248;28;20036;-59
2023/01/24 11:34:15;;;;;;;47.25;20.95;;;;;;;;;;5048799;28;20036;-60
2023/01/24 11:36:56;;;;;;;41.75;16.90;;;;;;;;;;5048213;28;20036;-60
2023/01/24 11:39:51;;;;;;;51.05;19.92;;;;;;;;;;5048880;28;20418;-60
2023/01/24 11:42:26;;;;;;;41.00;18.13;;;;;;;;;;5045991;28;20040;-60
2023/01/24 11:44:58;;;;;;;33.22;15.20;;;;;;;;;;5046456;28;20025;-59
2023/01/24 11:47:32;;;;;;;33.00;14.40;;;;;;;;;;5049931;28;20048;-59
2023/01/24 11:50:34;;;;;;;39.22;19.25;;;;;;;;;;5049226;28;20028;-59
2023/01/24 11:53:08;;;;;;;39.75;17.77;;;;;;;;;;5054052;28;20021;-59
2023/01/24 11:55:52;;;;;;;45.47;20.65;;;;;;;;;;5053013;28;20159;-59
2023/01/24 11:58:27;;;;;;;34.08;14.23;;;;;;;;;;5051073;28;20025;-59
2023/01/24 12:01:19;;;;;;;34.45;15.68;;;;;;;;;;5049868;28;20044;-58
2023/01/24 12:04:08;;;;;;;30.63;14.68;;;;;;;;;;5037761;28;20037;-59
2023/01/24 12:06:48;;;;;;;33.77;14.50;;;;;;;;;;5046126;28;20024;-59
2023/01/24 12:09:22;;;;;;;35.65;15.30;;;;;;;;;;5046723;28;20052;-59
2023/01/24 12:12:21;;;;;;;34.60;14.88;;;;;;;;;;5054758;28;20058;-59
2023/01/24 12:14:49;;;;;;;30.23;14.73;;;;;;;;;;5048200;28;20060;-59
2023/01/24 12:17:49;;;;;;;31.23;13.55;;;;;;;;;;5048147;28;20037;-59
2023/01/24 12:20:23;;;;;;;32.42;13.40;;;;;;;;;;5047826;28;20043;-59
2023/01/24 12:22:49;;;;;;;31.85;14.82;;;;;;;;;;5058959;28;20056;-59
2023/01/24 12:25:30;;;;;;;27.90;14.77;;;;;;;;;;5059565;28;20037;-60
2023/01/24 12:28:01;;;;;;;50.97;18.33;;;;;;;;;;5055568;28;20101;-60
2023/01/24 12:30:32;;;;;;;49.17;18.10;;;;;;;;;;5057478;28;20494;-60
2023/01/24 12:33:20;;;;;;;40.55;15.20;;;;;;;;;;5052296;28;20071;-61
2023/01/24 12:35:51;;;;;;;32.55;13.65;;;;;;;;;;5045947;28;20055;-61
2023/01/24 12:38:37;;;;;;;25.17;11.68;;;;;;;;;;5051956;28;20051;-60
2023/01/24 12:41:18;;;;;;;27.02;12.43;;;;;;;;;;5054092;28;20054;-61
2023/01/24 12:43:59;;;;;;;20.73;11.40;;;;;;;;;;5062090;28;20031;-61
2023/01/24 12:46:28;;;;;;;31.77;16.20;;;;;;;;;;5052566;28;20574;-60
2023/01/24 12:49:11;;;;;;;33.63;17.83;;;;;;;;;;5052032;28;20025;-60
2023/01/24 12:51:46;;;;;;;29.42;15.60;;;;;;;;;;5050057;28;20319;-60
2023/01/24 12:54:11;;;;;;;31.88;16.00;;;;;;;;;;5054152;28;20037;-60
2023/01/24 12:56:43;;;;;;;24.30;14.45;;;;;;;;;;5058148;28;20112;-60
2023/01/24 12:59:11;;;;;;;25.23;13.32;;;;;;;;;;5053982;28;20029;-60
2023/01/24 13:01:39;;;;;;;26.42;13.63;;;;;;;;;;5060050;28;20401;-60
2023/01/24 13:04:46;;;;;;;28.70;13.60;;;;;;;;;;5054552;28;20021;-60
2023/01/24 13:07:20;;;;;;;28.40;13.77;;;;;;;;;;5024088;28;20056;-60
2023/01/24 13:09:54;;;;;;;24.38;12.52;;;;;;;;;;5059681;28;20020;-60
2023/01/24 13:12:23;;;;;;;28.75;12.60;;;;;;;;;;5051566;28;20032;-60
2023/01/24 13:15:14;;;;;;;27.67;13.13;;;;;;;;;;5054935;28;20079;-60
2023/01/24 13:18:21;;;;;;;27.80;14.15;;;;;;;;;;5055072;28;20836;-60
2023/01/24 13:20:59;;;;;;;25.85;13.80;;;;;;;;;;5048580;28;20025;-59
2023/01/24 13:24:06;;;;;;;25.77;12.82;;;;;;;;;;5053801;28;20017;-60
2023/01/24 13:27:08;;;;;;;31.33;14.65;;;;;;;;;;5017810;28;20718;-59
2023/01/24 13:29:44;;;;;;;26.88;14.23;;;;;;;;;;5060648;28;20078;-59
2023/01/24 13:32:15;;;;;;;28.20;13.95;;;;;;;;;;5051197;28;20429;-59
2023/01/24 13:34:46;;;;;;;24.55;13.10;;;;;;;;;;5051293;28;20117;-59
2023/01/24 13:37:24;;;;;;;23.58;13.25;;;;;;;;;;5045568;28;20025;-59
2023/01/24 13:40:07;;;;;;;32.20;16.38;;;;;;;;;;5048607;28;20025;-59
2023/01/24 13:42:37;;;;;;;29.20;15.68;;;;;;;;;;5052779;28;20028;-59
2023/01/24 13:45:25;;;;;;;27.80;14.95;;;;;;;;;;5052727;28;20041;-59
2023/01/24 13:47:51;;;;;;;27.30;14.43;;;;;;;;;;5047791;28;20029;-59
2023/01/24 13:50:21;;;;;;;29.63;15.10;;;;;;;;;;5054259;28;20511;-59
2023/01/24 13:52:58;;;;;;;31.65;15.02;;;;;;;;;;5050970;28;20024;-59
2023/01/24 13:55:24;;;;;;;30.13;15.55;;;;;;;;;;5055333;28;20041;-59
2023/01/24 13:58:13;;;;;;;25.88;13.50;;;;;;;;;;5058054;28;20419;-59
2023/01/24 14:00:41;;;;;;;25.77;12.45;;;;;;;;;;5053553;28;20048;-59
2023/01/24 14:03:29;;;;;;;28.42;15.40;;;;;;;;;;5052273;28;20036;-59
2023/01/24 14:06:05;;;;;;;27.95;13.73;;;;;;;;;;5052531;28;20021;-59
2023/01/24 14:08:33;;;;;;;28.35;13.45;;;;;;;;;;5053298;28;20025;-59
2023/01/24 14:11:04;;;;;;;27.27;13.82;;;;;;;;;;5050902;28;20044;-59
2023/01/24 14:14:01;;;;;;;25.15;13.20;;;;;;;;;;5055008;28;20534;-59
2023/01/24 14:16:27;;;;;;;26.23;13.27;;;;;;;;;;5047416;28;20045;-59
2023/01/24 14:19:12;;;;;;;27.83;13.88;;;;;;;;;;5056668;28;20145;-59
2023/01/24 14:22:05;;;;;;;28.95;13.40;;;;;;;;;;5057314;28;20028;-59
2023/01/24 14:24:34;;;;;;;26.50;12.98;;;;;;;;;;5060055;28;20025;-59
2023/01/24 14:27:40;;;;;;;31.65;12.40;;;;;;;;;;5057587;28;20048;-59
2023/01/24 14:30:09;;;;;;;24.88;13.23;;;;;;;;;;5045249;28;20449;-59
2023/01/24 14:32:39;;;;;;;26.55;13.32;;;;;;;;;;5049961;28;20021;-60
2023/01/24 14:35:20;;;;;;;27.60;13.55;;;;;;;;;;5050295;28;20032;-59
2023/01/24 14:37:47;;;;;;;22.15;11.50;;;;;;;;;;5050320;28;20074;-59
2023/01/24 14:40:25;;;;;;;28.95;12.00;;;;;;;;;;5049564;28;20128;-59
2023/01/24 14:43:03;;;;;;;28.10;13.32;;;;;;;;;;5051640;28;20104;-59
2023/01/24 14:45:30;;;;;;;25.00;12.73;;;;;;;;;;5054102;28;20024;-59
2023/01/24 14:47:57;;;;;;;27.23;12.95;;;;;;;;;;5050683;28;20013;-60
2023/01/24 14:50:25;;;;;;;26.45;13.10;;;;;;;;;;5050261;28;20025;-59
2023/01/24 14:52:51;;;;;;;24.80;10.80;;;;;;;;;;5046522;28;20028;-59
2023/01/24 14:55:16;;;;;;;26.67;11.90;;;;;;;;;;5055899;28;20107;-59
2023/01/24 14:57:42;;;;;;;28.38;13.00;;;;;;;;;;5048977;28;20108;-59
2023/01/24 15:00:11;;;;;;;25.83;13.00;;;;;;;;;;5053893;28;20036;-60
2023/01/24 15:02:38;;;;;;;24.93;12.57;;;;;;;;;;5049849;28;20425;-59
2023/01/24 15:05:25;;;;;;;24.42;12.13;;;;;;;;;;5056809;28;20020;-60
2023/01/24 15:07:51;;;;;;;26.67;14.40;;;;;;;;;;5052213;28;20481;-60
2023/01/24 15:10:41;;;;;;;27.00;13.20;;;;;;;;;;5055433;28;20059;-60
2023/01/24 15:13:24;;;;;;;25.20;12.32;;;;;;;;;;5048229;28;20036;-60
2023/01/24 15:15:49;;;;;;;23.05;12.18;;;;;;;;;;5052733;28;20069;-60